Time;durP1;ratioP1;P1;durP2;ratioP2;P2;SDS_P1;SDS_P2;PMS_P1;PMS_P2;Temp;Humidity;BMP_temperature;BMP_pressure;BME280_temperature;BME280_humidity;BME280_pressure;Samples;Min_cycle;Max_cycle;Signal;HPM_P1;HPM_P2
2022/07/26 04:23:00;;;;;;;5.07;2.53;;;;;;;19.98;80.71;100155.41;5120133;27;20382;-58
2022/07/26 04:25:25;;;;;;;7.25;2.58;;;;;;;19.99;80.41;100156.22;5088943;28;20650;-58
2022/07/26 04:27:51;;;;;;;6.07;2.53;;;;;;;20.02;80.36;100155.78;5088704;28;20054;-58
2022/07/26 04:30:16;;;;;;;4.78;2.67;;;;;;;20.06;80.51;100159.63;5088541;28;20033;-58
2022/07/26 04:32:43;;;;;;;6.53;2.90;;;;;;;20.11;80.15;100157.03;5103088;22;20036;-49
2022/07/26 04:35:09;;;;;;;6.15;2.80;;;;;;;20.13;80.35;100154.91;5088694;28;20044;-49
2022/07/26 04:37:41;;;;;;;4.65;2.60;;;;;;;20.15;80.04;100163.63;5088821;28;20063;-50
2022/07/26 04:40:08;;;;;;;5.57;2.90;;;;;;;20.14;80.47;100161.97;5088410;28;20036;-54
2022/07/26 04:42:34;;;;;;;9.98;3.58;;;;;;;20.19;79.85;100164.78;5088670;28;20477;-52
2022/07/26 04:45:00;;;;;;;9.13;3.63;;;;;;;20.23;79.31;100179.47;5088609;28;20036;-53
2022/07/26 04:47:25;;;;;;;4.82;3.17;;;;;;;20.26;79.34;100176.28;5088575;28;20090;-52
2022/07/26 04:49:50;;;;;;;6.72;2.47;;;;;;;20.25;78.86;100173.81;5088216;28;20028;-51
2022/07/26 04:52:16;;;;;;;4.55;2.70;;;;;;;20.25;79.14;100173.81;5088346;28;20401;-52
2022/07/26 04:54:41;;;;;;;6.63;2.47;;;;;;;20.23;78.39;100176.78;5088334;28;20507;-53
2022/07/26 04:57:07;;;;;;;3.58;2.42;;;;;;;20.21;78.04;100169.94;5088348;28;20044;-52
2022/07/26 04:59:32;;;;;;;3.75;2.58;;;;;;;20.26;77.97;100180.88;5088002;28;20037;-56
2022/07/26 05:01:57;;;;;;;5.05;2.38;;;;;;;20.27;77.63;100180.63;5088121;28;20028;-52
2022/07/26 05:04:23;;;;;;;4.45;2.40;;;;;;;20.27;77.87;100183.34;5088222;28;20507;-52
2022/07/26 05:06:49;;;;;;;5.30;2.90;;;;;;;20.32;76.92;100180.75;5087027;28;20044;-54
2022/07/26 05:09:14;;;;;;;4.80;2.50;;;;;;;20.33;75.85;100185.09;5087846;28;20052;-52
2022/07/26 05:11:39;;;;;;;6.95;3.08;;;;;;;20.36;76.80;100183.81;5087995;28;20043;-52
2022/07/26 05:14:05;;;;;;;6.75;3.08;;;;;;;20.47;76.11;100193.78;5088135;28;20099;-55
2022/07/26 05:16:30;;;;;;;5.88;2.50;;;;;;;20.47;75.57;100190.25;5088497;28;20127;-54
2022/07/26 05:18:56;;;;;;;4.38;2.20;;;;;;;20.50;74.50;100197.91;5088044;28;20123;-53
2022/07/26 05:21:21;;;;;;;7.32;2.75;;;;;;;20.51;73.91;100192.25;5088119;28;20116;-52
2022/07/26 05:23:47;;;;;;;7.45;3.40;;;;;;;20.60;73.85;100200.81;5088098;28;20045;-54
2022/07/26 05:26:13;;;;;;;5.82;2.47;;;;;;;20.57;73.47;100204.81;5087934;28;20033;-51
2022/07/26 05:28:39;;;;;;;5.78;2.00;;;;;;;20.54;73.36;100207.22;5087739;28;20036;-53
2022/07/26 05:31:04;;;;;;;6.20;2.88;;;;;;;20.57;72.37;100212.94;5087395;28;20124;-52
2022/07/26 05:33:30;;;;;;;2.83;2.00;;;;;;;20.57;71.79;100220.25;5077642;28;20152;-53
2022/07/26 05:35:56;;;;;;;5.43;2.50;;;;;;;20.63;71.58;100213.88;5074196;28;20048;-53
2022/07/26 05:38:21;;;;;;;4.85;2.42;;;;;;;20.59;71.91;100220.81;5074127;28;20039;-55
2022/07/26 05:40:47;;;;;;;7.10;2.65;;;;;;;20.59;72.62;100220.81;5073967;28;20666;-52
2022/07/26 05:43:12;;;;;;;5.93;2.47;;;;;;;20.61;71.97;100229.53;5074001;28;20032;-54
2022/07/26 05:45:37;;;;;;;3.75;2.20;;;;;;;20.58;71.27;100228.13;5072703;28;20040;-55
2022/07/26 05:48:03;;;;;;;6.78;2.15;;;;;;;20.56;71.36;100224.84;5074361;28;20028;-50
2022/07/26 05:50:28;;;;;;;7.05;2.53;;;;;;;20.54;70.86;100242.38;5073552;28;20500;-51
2022/07/26 05:52:54;;;;;;;5.72;2.30;;;;;;;20.52;70.16;100222.84;5073850;28;20036;-49
2022/07/26 05:55:19;;;;;;;5.72;2.10;;;;;;;20.54;69.62;100224.25;5073866;28;20044;-53
2022/07/26 05:57:46;;;;;;;6.57;2.97;;;;;;;20.51;68.62;100221.19;5073726;28;20167;-52
2022/07/26 06:00:13;;;;;;;5.60;2.87;;;;;;;20.53;68.14;100209.06;5073369;28;20032;-52
2022/07/26 06:02:39;;;;;;;8.95;2.20;;;;;;;20.56;67.14;100219.41;5073705;28;20516;-54
2022/07/26 06:05:05;;;;;;;3.92;2.05;;;;;;;20.51;67.31;100218.50;5073656;28;20033;-53
2022/07/26 06:07:31;;;;;;;7.82;2.95;;;;;;;20.61;67.44;100220.59;5073783;28;20036;-55
2022/07/26 06:09:56;;;;;;;5.28;2.25;;;;;;;20.66;68.22;100224.19;5073225;28;20041;-53
2022/07/26 06:12:21;;;;;;;4.85;2.10;;;;;;;20.71;67.95;100232.44;5073244;28;20114;-51
2022/07/26 06:14:47;;;;;;;3.45;1.60;;;;;;;20.76;67.96;100229.84;5073474;28;20044;-56
2022/07/26 06:17:12;;;;;;;6.30;2.33;;;;;;;20.65;67.27;100227.97;5073345;28;20040;-54
2022/07/26 06:19:38;;;;;;;6.80;1.70;;;;;;;20.56;66.96;100221.31;5072957;28;20510;-51
2022/07/26 06:22:03;;;;;;;4.40;1.77;;;;;;;20.59;66.10;100227.03;5073221;28;20508;-51
2022/07/26 06:24:29;;;;;;;2.88;1.70;;;;;;;20.66;66.13;100228.78;5073119;28;20146;-51
2022/07/26 06:26:56;;;;;;;5.60;2.10;;;;;;;20.63;65.90;100235.53;5073219;28;20083;-51
2022/07/26 06:29:22;;;;;;;2.28;1.55;;;;;;;20.55;65.00;100235.91;5072916;28;20032;-50
2022/07/26 06:31:47;;;;;;;1.92;1.63;;;;;;;20.46;63.98;100235.44;5072983;28;20047;-50
2022/07/26 06:34:13;;;;;;;3.47;1.80;;;;;;;20.50;64.02;100238.50;5073281;28;20044;-50
2022/07/26 06:36:38;;;;;;;4.57;1.60;;;;;;;20.53;63.70;100246.13;5072102;28;20028;-51
2022/07/26 06:39:04;;;;;;;6.72;2.08;;;;;;;20.56;62.94;100242.94;5072752;28;20501;-51
2022/07/26 06:41:29;;;;;;;3.90;1.60;;;;;;;20.46;63.68;100226.50;5072942;28;20035;-51
2022/07/26 06:43:55;;;;;;;2.55;1.38;;;;;;;20.60;63.35;100238.69;5072407;28;20512;-53
2022/07/26 06:46:20;;;;;;;2.78;1.58;;;;;;;20.62;63.40;100239.28;5071287;28;20036;-51
2022/07/26 06:48:46;;;;;;;5.25;1.55;;;;;;;20.69;62.53;100236.44;5072714;28;20041;-51
2022/07/26 06:51:12;;;;;;;4.15;1.70;;;;;;;20.57;62.47;100239.19;5072449;28;20040;-53
2022/07/26 06:53:38;;;;;;;5.78;1.67;;;;;;;20.54;62.90;100236.97;5072681;28;20504;-50
2022/07/26 06:56:03;;;;;;;2.13;1.35;;;;;;;20.61;62.38;100237.66;5072645;28;20118;-52
2022/07/26 06:58:30;;;;;;;5.93;1.80;;;;;;;20.71;62.20;100245.16;5072695;28;20032;-54
2022/07/26 07:00:55;;;;;;;12.90;2.00;;;;;;;20.74;62.38;100240.09;5072156;28;20086;-53
2022/07/26 07:03:21;;;;;;;5.05;1.85;;;;;;;20.79;62.34;100242.06;5072450;28;20516;-52
2022/07/26 07:05:46;;;;;;;6.28;1.67;;;;;;;20.83;61.83;100235.09;5072502;28;20052;-51
2022/07/26 07:08:13;;;;;;;2.97;1.60;;;;;;;21.01;61.31;100237.63;5072452;28;20070;-53
2022/07/26 07:10:38;;;;;;;2.50;1.50;;;;;;;21.14;61.11;100233.81;5071997;28;20158;-49
2022/07/26 07:13:04;;;;;;;3.80;1.73;;;;;;;21.22;60.60;100240.72;5072305;28;20456;-54
2022/07/26 07:15:29;;;;;;;3.25;1.67;;;;;;;21.23;60.48;100242.34;5072217;28;20123;-51
2022/07/26 07:17:55;;;;;;;2.78;1.70;;;;;;;21.31;60.21;100231.16;5072246;28;20044;-52
2022/07/26 07:20:20;;;;;;;5.28;1.52;;;;;;;21.48;60.18;100242.84;5071896;28;20082;-51
2022/07/26 07:22:46;;;;;;;2.15;1.42;;;;;;;21.49;59.04;100243.66;5054448;28;20040;-53
2022/07/26 07:25:11;;;;;;;4.60;1.50;;;;;;;21.42;58.67;100237.56;5072185;28;20032;-53
2022/07/26 07:27:37;;;;;;;3.00;1.45;;;;;;;21.36;58.54;100239.38;5072048;28;20457;-51
2022/07/26 07:30:07;;;;;;;5.15;1.40;;;;;;;21.40;59.17;100232.41;5071765;28;20032;-50
2022/07/26 07:32:32;;;;;;;4.78;1.60;;;;;;;21.43;60.47;100231.09;5071704;28;20028;-50
2022/07/26 07:34:58;;;;;;;2.80;1.30;;;;;;;21.48;58.28;100242.00;5070749;28;20566;-54
2022/07/26 07:37:23;;;;;;;6.15;1.40;;;;;;;21.47;57.87;100224.13;5071894;28;20024;-54
2022/07/26 07:39:49;;;;;;;3.05;1.30;;;;;;;21.62;57.17;100237.91;5071581;28;20396;-53
2022/07/26 07:42:14;;;;;;;3.92;1.30;;;;;;;21.54;57.96;100241.03;5071771;28;20039;-52
2022/07/26 07:44:40;;;;;;;3.85;1.30;;;;;;;21.52;58.25;100240.47;5071703;28;20102;-53
2022/07/26 07:47:07;;;;;;;3.03;1.30;;;;;;;21.62;58.11;100240.63;5071746;28;20116;-54
2022/07/26 07:49:33;;;;;;;3.63;1.30;;;;;;;21.77;56.70;100240.03;5071533;28;20033;-55
2022/07/26 07:51:59;;;;;;;5.22;1.27;;;;;;;21.79;56.23;100244.16;5071520;28;20044;-53
2022/07/26 07:54:25;;;;;;;6.28;1.55;;;;;;;21.88;56.10;100239.13;5071622;28;20169;-52
2022/07/26 07:56:51;;;;;;;2.38;1.48;;;;;;;21.94;55.71;100235.44;5071382;28;20100;-52
2022/07/26 07:59:16;;;;;;;2.10;1.30;;;;;;;21.95;56.64;100239.78;5071463;28;20037;-66
2022/07/26 08:01:41;;;;;;;2.90;1.20;;;;;;;21.99;55.72;100237.41;5072608;28;20035;-66
2022/07/26 08:04:08;;;;;;;6.75;1.40;;;;;;;22.14;54.18;100245.81;5072551;28;20115;-67
2022/07/26 08:06:33;;;;;;;3.78;1.35;;;;;;;21.99;54.85;100242.84;5072527;28;20044;-66
2022/07/26 08:08:59;;;;;;;3.08;1.40;;;;;;;22.07;55.59;100240.53;5071322;28;20122;-67
2022/07/26 08:11:25;;;;;;;3.50;1.25;;;;;;;22.23;56.28;100241.56;5071112;28;20048;-66
2022/07/26 08:13:50;;;;;;;2.58;0.98;;;;;;;22.23;55.26;100244.28;5070240;28;20076;-66
2022/07/26 08:16:16;;;;;;;5.15;1.25;;;;;;;22.43;54.95;100241.03;5071411;28;20064;-67
2022/07/26 08:18:41;;;;;;;1.85;1.20;;;;;;;22.57;54.70;100238.78;5071481;28;20068;-66
2022/07/26 08:21:07;;;;;;;2.40;1.23;;;;;;;22.72;53.90;100247.94;5069795;28;20032;-66
2022/07/26 08:23:32;;;;;;;3.22;1.30;;;;;;;22.71;53.49;100248.19;5071294;28;20044;-65
2022/07/26 08:25:58;;;;;;;3.45;1.20;;;;;;;22.71;52.76;100246.28;5071227;28;20051;-66
2022/07/26 08:28:27;;;;;;;2.58;1.10;;;;;;;22.88;53.15;100246.22;5071423;28;20101;-66
2022/07/26 08:30:53;;;;;;;2.08;1.25;;;;;;;22.95;52.69;100256.91;5071041;28;20086;-66
2022/07/26 08:33:18;;;;;;;1.50;1.10;;;;;;;22.52;52.65;100252.28;5071175;28;20033;-66
2022/07/26 08:35:44;;;;;;;3.78;1.20;;;;;;;22.70;52.84;100243.84;5071256;28;20062;-67
2022/07/26 08:38:09;;;;;;;1.02;0.90;;;;;;;22.81;51.73;100245.56;5071252;28;20032;-66
2022/07/26 08:40:35;;;;;;;2.47;0.90;;;;;;;23.14;53.06;100249.22;5070878;28;20044;-65
2022/07/26 08:43:01;;;;;;;3.58;1.33;;;;;;;22.94;51.60;100255.25;5069684;28;20051;-66
2022/07/26 08:45:28;;;;;;;1.77;1.00;;;;;;;23.01;52.10;100253.97;5071065;28;20056;-67
2022/07/26 08:47:54;;;;;;;;;;;;;;;23.15;50.64;100253.63;5071540;28;20032;-67
2022/07/26 08:50:20;;;;;;;4.45;1.05;;;;;;;23.27;50.14;100262.41;5070812;28;19939;-66
2022/07/26 08:52:46;;;;;;;2.85;1.20;;;;;;;23.29;50.85;100266.53;5071076;28;20040;-66
2022/07/26 08:55:16;;;;;;;3.75;1.13;;;;;;;23.26;50.73;100255.34;5070975;28;20094;-66
2022/07/26 08:57:41;;;;;;;2.38;1.17;;;;;;;23.44;50.24;100254.97;5069730;28;20032;-66
2022/07/26 09:00:23;;;;;;;3.70;1.10;;;;;;;23.59;51.16;100267.06;5070677;28;20393;-66
2022/07/26 09:02:49;;;;;;;2.40;0.88;;;;;;;23.53;49.88;100258.84;5071077;28;20032;-67
2022/07/26 09:05:17;;;;;;;3.08;1.70;;;;;;;23.50;50.54;100264.00;5070992;28;20401;-67
2022/07/26 09:07:44;;;;;;;1.27;0.93;;;;;;;23.22;50.30;100255.03;5071741;28;20036;-66
2022/07/26 09:10:12;;;;;;;2.73;1.00;;;;;;;23.51;50.04;100263.72;5074454;28;20096;-65
2022/07/26 09:12:39;;;;;;;1.17;0.90;;;;;;;23.67;51.04;100250.28;5074408;28;20095;-66
2022/07/26 09:15:07;;;;;;;1.80;0.90;;;;;;;23.80;50.36;100256.13;5074571;28;20098;-66
2022/07/26 09:17:41;;;;;;;1.83;0.80;;;;;;;23.86;49.58;100256.16;5074485;28;20071;-66
2022/07/26 09:20:11;;;;;;;1.67;1.15;;;;;;;24.16;47.45;100259.09;5074276;28;20484;-66
2022/07/26 09:22:38;;;;;;;1.75;1.05;;;;;;;24.35;47.17;100254.88;5074355;28;20048;-66
2022/07/26 09:25:19;;;;;;;2.03;0.75;;;;;;;24.66;47.98;100246.88;5074557;28;20039;-65
2022/07/26 09:27:44;;;;;;;2.22;0.90;;;;;;;24.75;47.54;100258.88;5074451;28;20495;-66
2022/07/26 09:30:11;;;;;;;1.42;0.80;;;;;;;24.94;45.88;100256.50;5072709;28;20044;-66
2022/07/26 09:32:36;;;;;;;1.63;0.63;;;;;;;24.83;45.98;100255.63;5073996;28;20144;-65
2022/07/26 09:35:16;;;;;;;3.20;0.80;;;;;;;25.25;45.40;100242.97;5074111;28;20124;-65
2022/07/26 09:37:45;;;;;;;1.83;0.95;;;;;;;25.52;47.32;100256.38;5072890;28;20393;-65
2022/07/26 09:40:16;;;;;;;1.60;0.90;;;;;;;25.34;45.27;100253.06;5073864;28;20098;-66
2022/07/26 09:42:58;;;;;;;1.73;0.90;;;;;;;24.90;44.37;100263.56;5072780;28;20060;-65
2022/07/26 09:45:26;;;;;;;1.92;0.90;;;;;;;24.87;45.11;100255.94;5073983;28;20040;-65
2022/07/26 09:47:52;;;;;;;1.98;0.95;;;;;;;25.29;44.83;100252.25;5073958;28;20048;-66
2022/07/26 09:50:29;;;;;;;1.73;0.95;;;;;;;25.81;43.75;100256.66;5073570;28;20485;-66
2022/07/26 09:53:08;;;;;;;;;;;;;;;26.04;42.82;100253.38;5059726;28;20494;-66
2022/07/26 09:55:45;;;;;;;1.10;0.80;;;;;;;26.14;42.43;100253.34;5053781;28;19970;-66
2022/07/26 09:58:12;;;;;;;2.45;0.95;;;;;;;26.55;41.98;100258.75;5052299;28;20555;-66
2022/07/26 10:00:38;;;;;;;2.72;0.98;;;;;;;26.37;41.33;100264.75;5053539;28;20060;-66
2022/07/26 10:03:04;;;;;;;1.52;0.90;;;;;;;26.47;42.94;100265.59;5053630;28;20037;-65
2022/07/26 10:05:31;;;;;;;1.35;0.70;;;;;;;26.76;42.15;100254.00;5053789;28;20718;-65
2022/07/26 10:07:58;;;;;;;2.67;1.00;;;;;;;26.41;41.74;100258.50;5053720;28;20037;-65
2022/07/26 10:10:38;;;;;;;1.73;0.70;;;;;;;25.87;42.66;100261.84;5053319;28;20493;-64
2022/07/26 10:13:05;;;;;;;0.88;0.70;;;;;;;25.47;42.42;100262.63;5053642;28;20115;-62
2022/07/26 10:15:35;;;;;;;;;;;;;;;25.92;42.47;100266.47;5053846;28;20051;-65
2022/07/26 10:18:01;;;;;;;2.05;0.77;;;;;;;25.77;42.81;100259.13;5053670;28;20451;-65
2022/07/26 10:20:50;;;;;;;0.88;0.75;;;;;;;25.59;42.38;100263.19;5053153;28;20111;-65
2022/07/26 10:23:34;;;;;;;1.10;0.70;;;;;;;26.15;42.33;100260.47;5042993;28;20049;-66
2022/07/26 10:26:02;;;;;;;1.35;0.70;;;;;;;26.93;41.48;100253.63;5053687;28;20409;-66
2022/07/26 10:28:29;;;;;;;2.47;1.10;;;;;;;27.66;38.33;100253.72;5053314;28;20036;-66
2022/07/26 10:31:21;;;;;;;2.45;0.77;;;;;;;27.97;38.28;100256.19;5052890;28;20056;-66
2022/07/26 10:33:49;;;;;;;1.67;0.63;;;;;;;27.90;38.75;100247.50;5042026;22;20565;-66
2022/07/26 10:36:28;;;;;;;1.15;0.68;;;;;;;27.47;37.87;100244.59;5013443;28;20133;-66
2022/07/26 10:39:08;;;;;;;1.77;0.80;;;;;;;27.94;38.21;100254.88;5013632;28;20103;-66
2022/07/26 10:41:38;;;;;;;1.23;0.68;;;;;;;27.88;38.17;100256.03;5013600;28;20068;-66
2022/07/26 10:44:17;;;;;;;2.17;0.82;;;;;;;27.90;37.97;100255.72;5032894;28;20489;-66
2022/07/26 10:47:07;;;;;;;3.35;0.88;;;;;;;27.22;38.47;100251.88;5033574;28;20470;-66
2022/07/26 10:49:43;;;;;;;2.13;0.73;;;;;;;27.95;37.51;100252.94;5032911;28;20045;-66
2022/07/26 10:52:17;;;;;;;0.98;0.57;;;;;;;28.08;37.33;100242.13;5032930;28;20042;-66
2022/07/26 10:54:55;;;;;;;1.75;1.02;;;;;;;27.75;38.77;100254.78;5033036;28;20037;-66
2022/07/26 10:57:27;;;;;;;1.52;0.73;;;;;;;27.65;37.94;100252.09;5033086;28;20036;-66
2022/07/26 10:59:56;;;;;;;2.22;0.70;;;;;;;28.36;37.21;100254.22;5031414;28;20041;-66
2022/07/26 11:02:34;;;;;;;2.05;0.70;;;;;;;29.03;36.32;100251.47;5032926;28;20521;-66
2022/07/26 11:05:11;;;;;;;1.80;0.68;;;;;;;29.60;34.32;100248.69;5032865;28;20482;-66
2022/07/26 11:07:47;;;;;;;0.57;0.50;;;;;;;30.21;33.76;100250.41;5032907;28;20474;-66
2022/07/26 11:10:13;;;;;;;0.93;0.77;;;;;;;30.50;34.54;100248.16;5032527;28;20037;-66
2022/07/26 11:12:38;;;;;;;0.90;0.70;;;;;;;30.78;34.80;100249.00;5032596;28;20414;-66
2022/07/26 11:15:15;;;;;;;0.68;0.47;;;;;;;31.55;32.73;100248.03;5032790;28;20041;-66
2022/07/26 11:17:41;;;;;;;;;;;;;;;31.74;30.85;100244.28;5033011;28;20049;-66
2022/07/26 11:20:07;;;;;;;2.87;0.90;;;;;;;31.20;33.31;100251.63;5032200;28;20016;-66
2022/07/26 11:22:35;;;;;;;3.50;0.70;;;;;;;30.53;31.52;100244.81;5032636;28;20048;-66
2022/07/26 11:25:02;;;;;;;1.00;0.55;;;;;;;30.80;31.46;100235.75;5031214;28;20099;-66
2022/07/26 11:27:28;;;;;;;1.10;0.50;;;;;;;30.65;32.59;100229.75;5032489;28;20037;-65
2022/07/26 11:29:53;;;;;;;2.08;0.70;;;;;;;30.48;32.48;100235.84;5032036;28;20606;-67
2022/07/26 11:32:22;;;;;;;1.00;0.52;;;;;;;30.38;34.48;100234.13;5031783;28;20034;-66
2022/07/26 11:34:57;;;;;;;0.80;0.60;;;;;;;30.80;33.98;100227.50;5032322;28;20048;-66
2022/07/26 11:37:22;;;;;;;2.33;0.70;;;;;;;30.61;32.54;100229.53;5032354;28;20505;-65
2022/07/26 11:39:48;;;;;;;1.52;0.57;;;;;;;31.41;31.07;100224.47;5031956;28;20029;-66
2022/07/26 11:42:15;;;;;;;0.47;0.40;;;;;;;31.30;31.01;100223.94;5032258;28;20112;-66
2022/07/26 11:44:45;;;;;;;1.70;0.70;;;;;;;31.35;32.80;100226.53;5031962;28;20091;-65
2022/07/26 11:47:13;;;;;;;0.90;0.60;;;;;;;31.52;31.49;100223.09;5032215;28;20374;-66
2022/07/26 11:49:39;;;;;;;2.28;0.68;;;;;;;31.48;31.50;100220.16;5031815;28;20044;-66
2022/07/26 11:52:04;;;;;;;1.63;0.50;;;;;;;31.57;32.26;100218.28;5031868;28;20053;-65
2022/07/26 11:54:42;;;;;;;0.90;0.60;;;;;;;30.91;31.25;100222.59;5032094;28;20045;-67
2022/07/26 11:57:08;;;;;;;0.82;0.57;;;;;;;31.40;31.73;100223.66;5031897;28;20037;-66
2022/07/26 11:59:35;;;;;;;1.63;0.75;;;;;;;31.73;31.56;100228.91;5031569;28;20168;-64
2022/07/26 12:02:03;;;;;;;3.40;0.70;;;;;;;31.97;30.45;100225.84;5031903;28;20041;-64
2022/07/26 12:04:32;;;;;;;1.25;0.60;;;;;;;31.68;31.18;100215.25;5031721;28;20044;-64
2022/07/26 12:06:59;;;;;;;1.08;0.60;;;;;;;31.21;29.86;100226.56;5031798;28;20041;-64
2022/07/26 12:09:29;;;;;;;0.80;0.50;;;;;;;31.93;29.41;100225.63;5030205;28;20034;-64
2022/07/26 12:11:55;;;;;;;0.93;0.50;;;;;;;32.65;29.76;100214.25;5043975;28;20048;-65
2022/07/26 12:14:25;;;;;;;;;;;;;;;32.36;29.00;100222.31;5009750;28;20456;-65
2022/07/26 12:16:50;;;;;;;1.75;0.60;;;;;;;32.74;28.41;100228.06;5040393;28;19967;-65
2022/07/26 12:19:15;;;;;;;0.90;0.57;;;;;;;32.03;28.54;100216.31;5041811;28;20367;-65
2022/07/26 12:21:47;;;;;;;0.90;0.50;;;;;;;30.66;30.14;100212.94;5040831;28;20030;-63
2022/07/26 12:24:34;;;;;;;2.17;0.50;;;;;;;30.02;31.41;100212.00;5040082;28;20033;-63
2022/07/26 12:27:14;;;;;;;0.52;0.47;;;;;;;29.61;32.77;100209.19;5038633;28;20033;-64
2022/07/26 12:29:42;;;;;;;0.80;0.60;;;;;;;30.66;31.75;100204.69;5037874;28;20044;-63
2022/07/26 12:32:10;;;;;;;1.67;0.88;;;;;;;31.00;31.11;100203.41;5040255;28;20037;-63
2022/07/26 12:34:37;;;;;;;2.15;0.77;;;;;;;30.69;30.27;100200.53;5041924;28;20136;-64
2022/07/26 12:37:16;;;;;;;1.05;0.50;;;;;;;30.48;31.75;100203.69;5043675;28;20041;-63
2022/07/26 12:40:01;;;;;;;1.52;0.63;;;;;;;29.54;32.41;100206.84;5051091;28;20199;-63
2022/07/26 12:42:30;;;;;;;1.92;0.75;;;;;;;29.06;32.83;100192.47;5051656;28;20044;-63
2022/07/26 12:44:57;;;;;;;2.35;0.70;;;;;;;28.76;33.17;100200.00;5055443;28;20032;-61
2022/07/26 12:47:22;;;;;;;;;;;;;;;28.33;34.38;100205.47;5055746;28;20025;-63
2022/07/26 12:49:48;;;;;;;0.90;0.60;;;;;;;28.18;35.50;100205.63;5054967;28;20274;-63
2022/07/26 12:52:15;;;;;;;0.70;0.55;;;;;;;28.33;35.26;100204.66;5055165;28;20531;-62
2022/07/26 12:54:44;;;;;;;1.55;0.73;;;;;;;28.57;34.10;100204.66;5055151;28;20033;-63
2022/07/26 12:57:09;;;;;;;0.80;0.70;;;;;;;28.59;35.34;100196.94;5055249;28;20112;-61
2022/07/26 12:59:35;;;;;;;0.98;0.55;;;;;;;28.85;34.65;100197.41;5054807;28;20072;-62
2022/07/26 13:02:01;;;;;;;1.67;0.60;;;;;;;28.71;33.52;100193.78;5054858;28;20056;-63
2022/07/26 13:04:26;;;;;;;1.27;0.55;;;;;;;28.64;33.69;100194.16;5055081;28;20520;-62
2022/07/26 13:06:52;;;;;;;2.08;0.70;;;;;;;28.82;33.70;100190.59;5055018;28;20115;-63
2022/07/26 13:09:17;;;;;;;1.15;0.57;;;;;;;28.64;33.02;100183.19;5053288;28;20077;-60
2022/07/26 13:11:43;;;;;;;1.92;0.70;;;;;;;28.15;34.35;100181.56;5054733;28;20051;-62
2022/07/26 13:14:08;;;;;;;0.95;0.65;;;;;;;28.21;35.12;100169.44;5054896;28;20072;-61
2022/07/26 13:16:33;;;;;;;1.63;0.80;;;;;;;28.35;34.76;100184.09;5054866;28;20077;-62
2022/07/26 13:18:59;;;;;;;1.45;0.75;;;;;;;28.52;36.27;100174.56;5054714;28;20290;-62
2022/07/26 13:21:24;;;;;;;2.55;0.68;;;;;;;28.46;36.55;100178.50;5054575;28;20037;-62
2022/07/26 13:23:50;;;;;;;2.13;0.70;;;;;;;28.09;34.87;100174.50;5054582;28;20060;-62
2022/07/26 13:26:15;;;;;;;0.93;0.60;;;;;;;28.39;34.53;100173.38;5054706;28;20406;-62
2022/07/26 13:28:40;;;;;;;2.15;0.90;;;;;;;28.61;34.64;100170.88;5054522;28;20493;-63
2022/07/26 13:31:06;;;;;;;1.50;0.70;;;;;;;28.12;35.53;100177.50;5052994;28;20397;-61
2022/07/26 13:33:32;;;;;;;1.75;0.60;;;;;;;28.04;34.53;100169.13;5054236;28;20514;-63
2022/07/26 13:35:57;;;;;;;1.27;0.60;;;;;;;27.78;34.43;100165.84;5054467;28;20482;-63
2022/07/26 13:38:23;;;;;;;1.38;0.60;;;;;;;27.62;35.14;100172.50;5054434;28;20140;-61
2022/07/26 13:40:49;;;;;;;3.05;0.93;;;;;;;27.65;35.57;100174.66;5054099;28;20033;-62
2022/07/26 13:43:14;;;;;;;1.60;0.70;;;;;;;27.43;35.98;100169.66;5054059;28;20394;-63
2022/07/26 13:45:40;;;;;;;1.38;0.73;;;;;;;27.26;35.89;100170.91;5054311;28;20037;-61
2022/07/26 13:48:06;;;;;;;1.85;0.75;;;;;;;27.64;37.19;100162.09;5054183;28;20041;-62
2022/07/26 13:50:31;;;;;;;1.60;0.75;;;;;;;27.70;37.78;100156.31;5053847;28;20044;-63
2022/07/26 13:52:57;;;;;;;2.15;0.90;;;;;;;27.81;36.10;100149.63;5053901;28;20047;-63
2022/07/26 13:55:24;;;;;;;1.55;1.10;;;;;;;27.79;35.54;100148.31;5053799;28;20047;-62
2022/07/26 13:57:49;;;;;;;1.88;1.40;;;;;;;27.94;37.76;100145.41;5054377;28;20119;-63
2022/07/26 14:00:14;;;;;;;1.90;0.73;;;;;;;28.05;35.75;100143.38;5053718;28;20485;-63
2022/07/26 14:02:40;;;;;;;1.80;0.70;;;;;;;27.88;35.29;100149.28;5053847;28;20418;-62
2022/07/26 14:05:06;;;;;;;0.95;0.70;;;;;;;27.88;34.59;100156.69;5054017;28;20375;-63
2022/07/26 14:07:31;;;;;;;1.20;0.70;;;;;;;27.63;35.72;100150.34;5053828;28;20044;-62
2022/07/26 14:09:56;;;;;;;1.92;0.80;;;;;;;27.51;34.96;100155.38;5053488;28;20090;-62
2022/07/26 14:12:22;;;;;;;1.55;1.23;;;;;;;27.58;35.23;100150.38;5053682;28;20061;-62
2022/07/26 14:14:47;;;;;;;1.88;0.70;;;;;;;27.59;35.75;100152.84;5053708;28;20045;-62
2022/07/26 14:17:13;;;;;;;1.90;0.82;;;;;;;27.44;37.05;100155.69;5053687;28;20127;-60
2022/07/26 14:19:38;;;;;;;2.53;1.10;;;;;;;27.56;38.00;100147.13;5053398;28;20037;-62
2022/07/26 14:22:04;;;;;;;3.92;0.80;;;;;;;27.53;36.44;100150.44;5053433;28;20095;-62
2022/07/26 14:24:29;;;;;;;0.93;0.70;;;;;;;27.58;36.95;100144.91;5053547;28;20119;-63
2022/07/26 14:26:55;;;;;;;2.13;0.90;;;;;;;27.54;35.21;100150.16;5053484;28;20082;-58
2022/07/26 14:29:20;;;;;;;1.95;0.90;;;;;;;27.49;35.73;100154.84;5053085;28;20367;-62
2022/07/26 14:31:46;;;;;;;0.95;0.70;;;;;;;27.50;35.67;100145.53;5053136;28;20048;-58
2022/07/26 14:34:11;;;;;;;1.13;0.68;;;;;;;27.58;35.21;100158.59;5053466;28;20045;-64
2022/07/26 14:36:36;;;;;;;1.33;0.80;;;;;;;27.64;33.85;100149.22;5053314;28;20069;-64
2022/07/26 14:39:02;;;;;;;2.80;0.80;;;;;;;27.90;34.81;100151.72;5053092;28;20072;-64
2022/07/26 14:41:27;;;;;;;2.83;0.80;;;;;;;27.81;34.01;100149.63;5053117;28;20043;-63
2022/07/26 14:43:53;;;;;;;2.05;1.30;;;;;;;27.98;33.17;100132.75;5052925;28;20045;-64
2022/07/26 14:46:19;;;;;;;1.40;0.73;;;;;;;27.75;32.52;100136.28;5053055;28;20394;-61
2022/07/26 14:48:45;;;;;;;2.00;0.70;;;;;;;27.72;33.15;100134.97;5053003;28;20394;-62
2022/07/26 14:51:10;;;;;;;1.25;0.60;;;;;;;27.81;34.03;100135.13;5052674;28;20136;-62
2022/07/26 14:53:36;;;;;;;1.45;0.85;;;;;;;27.81;33.21;100135.13;5051506;28;20048;-62
2022/07/26 14:56:01;;;;;;;2.45;0.80;;;;;;;27.71;32.77;100132.50;5052951;28;20056;-59
2022/07/26 14:58:27;;;;;;;2.58;0.82;;;;;;;27.78;33.31;100143.94;5052861;28;20029;-60
2022/07/26 15:00:52;;;;;;;1.38;1.00;;;;;;;27.83;34.43;100141.94;5052425;28;20397;-60
2022/07/26 15:03:18;;;;;;;1.10;0.80;;;;;;;27.87;34.37;100142.19;5052803;28;20406;-60
2022/07/26 15:05:44;;;;;;;2.60;1.17;;;;;;;27.73;34.72;100144.81;5051024;28;20703;-61
2022/07/26 15:08:10;;;;;;;1.42;0.90;;;;;;;27.64;35.31;100137.47;5052695;28;20127;-62
2022/07/26 15:10:35;;;;;;;1.67;0.90;;;;;;;27.39;34.58;100133.91;5052380;28;20037;-61
2022/07/26 15:13:04;;;;;;;1.15;0.80;;;;;;;27.42;35.57;100127.84;5052305;28;20048;-60
2022/07/26 15:15:30;;;;;;;2.30;0.80;;;;;;;27.28;35.61;100140.53;5051111;28;20044;-62
2022/07/26 15:17:56;;;;;;;1.83;0.90;;;;;;;27.27;36.48;100139.72;5052564;28;20033;-62
2022/07/26 15:20:23;;;;;;;1.35;0.70;;;;;;;27.28;36.23;100140.53;5052175;28;20132;-62
2022/07/26 15:22:49;;;;;;;1.73;0.80;;;;;;;27.40;37.91;100127.31;5052500;28;20564;-61
2022/07/26 15:25:15;;;;;;;0.93;0.70;;;;;;;27.18;36.20;100122.28;5052358;28;20478;-62
2022/07/26 15:27:40;;;;;;;10.57;2.42;;;;;;;27.22;36.06;100133.50;5052206;28;20127;-62
2022/07/26 15:30:07;;;;;;;2.05;0.90;;;;;;;27.20;36.19;100131.03;5051886;28;20040;-62
2022/07/26 15:32:33;;;;;;;0.57;0.50;;;;;;;27.12;36.03;100120.69;5051802;28;20044;-61
2022/07/26 15:34:59;;;;;;;1.58;0.85;;;;;;;27.07;35.40;100115.31;5052128;28;20128;-62
2022/07/26 15:37:25;;;;;;;1.30;0.82;;;;;;;27.03;35.04;100111.47;5052206;28;20115;-62
2022/07/26 15:39:50;;;;;;;1.80;0.60;;;;;;;27.23;35.19;100122.25;5051766;28;20100;-61
2022/07/26 15:42:16;;;;;;;3.47;1.33;;;;;;;27.22;33.64;100119.81;5051985;28;20506;-62
2022/07/26 15:44:42;;;;;;;3.45;1.08;;;;;;;27.22;35.21;100112.44;5052043;28;20072;-62
2022/07/26 15:47:07;;;;;;;3.95;1.83;;;;;;;27.21;34.56;100108.06;5051989;28;20048;-62
2022/07/26 15:49:33;;;;;;;1.48;1.17;;;;;;;27.16;34.30;100110.03;5051708;28;20032;-62